Time;durP1;ratioP1;P1;durP2;ratioP2;P2;SDS_P1;SDS_P2;PMS_P1;PMS_P2;Temp;Humidity;BMP_temperature;BMP_pressure;BME280_temperature;BME280_humidity;BME280_pressure;Samples;Min_cycle;Max_cycle;Signal;HPM_P1;HPM_P2
2022/05/07 00:01:21;;;;;;;636.42;583.55;;;15.10;99.90;;;;;;5069013;28;20197;-73
2022/05/07 00:03:47;;;;;;;584.65;535.67;;;15.10;99.90;;;;;;5032858;28;20237;-73
2022/05/07 00:06:12;;;;;;;614.15;562.55;;;15.10;99.90;;;;;;5066125;28;20211;-74
2022/05/07 00:08:38;;;;;;;620.55;569.05;;;15.00;99.90;;;;;;5035612;28;20248;-73
2022/05/07 00:11:04;;;;;;;637.08;584.05;;;14.90;99.90;;;;;;5035959;28;20644;-74
2022/05/07 00:13:30;;;;;;;613.22;562.35;;;15.00;99.90;;;;;;5047908;28;20182;-73
2022/05/07 00:18:39;;;;;;;624.75;572.88;;;14.90;99.90;;;;;;5033668;28;20178;-73
2022/05/07 00:21:07;;;;;;;574.30;526.08;;;14.90;99.90;;;;;;5032962;28;20195;-73
2022/05/07 00:23:33;;;;;;;564.13;516.92;;;14.80;99.90;;;;;;5033027;28;20236;-73
2022/05/07 00:25:58;;;;;;;552.75;507.17;;;14.80;99.90;;;;;;5032883;28;20211;-73
2022/05/07 00:28:24;;;;;;;536.13;493.25;;;14.70;99.90;;;;;;5032610;28;20221;-73
2022/05/07 00:30:50;;;;;;;530.78;486.92;;;14.70;99.90;;;;;;5042309;28;20277;-73
2022/05/07 00:33:15;;;;;;;523.92;482.90;;;14.70;99.90;;;;;;5040178;28;20236;-73
2022/05/07 00:35:41;;;;;;;504.08;465.55;;;14.70;99.90;;;;;;5033648;28;20194;-73
2022/05/07 00:38:07;;;;;;;507.80;468.85;;;14.60;99.90;;;;;;5032975;28;20265;-73
2022/05/07 00:40:32;;;;;;;542.88;501.17;;;14.60;99.90;;;;;;5037904;28;20202;-73
2022/05/07 00:42:58;;;;;;;523.30;483.67;;;14.60;99.90;;;;;;5049085;28;20190;-74
2022/05/07 00:45:24;;;;;;;539.03;499.85;;;14.60;99.90;;;;;;5049192;28;20195;-73
2022/05/07 00:47:50;;;;;;;585.00;542.33;;;14.60;99.90;;;;;;5032282;28;20207;-74
2022/05/07 00:53:00;;;;;;;733.10;681.65;;;14.60;99.90;;;;;;5032240;28;20277;-73
2022/05/07 00:55:28;;;;;;;844.95;785.13;;;14.60;99.90;;;;;;5032276;28;20202;-73
2022/05/07 00:57:55;;;;;;;893.00;829.22;;;14.60;99.90;;;;;;5041734;28;20201;-73
2022/05/07 01:00:21;;;;;;;876.83;813.83;;;14.60;99.90;;;;;;5032062;28;20210;-73
2022/05/07 01:02:47;;;;;;;835.15;776.05;;;14.60;99.90;;;;;;5031725;28;20186;-73
2022/05/07 01:05:16;;;;;;;773.45;719.78;;;14.70;99.90;;;;;;5032051;28;20205;-73
2022/05/07 01:07:43;;;;;;;761.88;709.13;;;14.70;99.90;;;;;;5033535;28;20272;-73
2022/05/07 01:10:09;;;;;;;704.72;656.08;;;14.70;99.90;;;;;;5032392;28;20202;-73
2022/05/07 01:12:35;;;;;;;671.58;625.08;;;14.70;99.90;;;;;;5032051;28;20190;-73
2022/05/07 01:15:02;;;;;;;720.35;670.75;;;14.80;99.90;;;;;;5036750;28;20244;-74
2022/05/07 01:17:34;;;;;;;750.97;698.60;;;14.80;99.90;;;;;;5084187;28;20423;-73
2022/05/07 01:20:00;;;;;;;732.78;682.17;;;14.80;99.90;;;;;;5048402;28;20546;-73
2022/05/07 01:22:29;;;;;;;751.08;698.65;;;14.80;99.90;;;;;;5060195;28;20182;-73
2022/05/07 01:24:54;;;;;;;757.60;704.85;;;14.90;99.90;;;;;;5033305;28;20191;-73
2022/05/07 01:27:20;;;;;;;815.70;758.30;;;14.90;99.90;;;;;;5047177;28;20217;-73
2022/05/07 01:29:47;;;;;;;767.28;713.47;;;14.90;99.90;;;;;;5034526;28;20705;-73
2022/05/07 01:32:13;;;;;;;800.00;744.55;;;14.90;99.90;;;;;;5035582;28;20185;-73
2022/05/07 01:34:38;;;;;;;813.63;756.75;;;14.90;99.90;;;;;;5036721;28;20187;-73
2022/05/07 01:37:04;;;;;;;819.42;761.78;;;14.90;99.90;;;;;;5068146;28;20198;-72
2022/05/07 01:39:30;;;;;;;829.55;771.30;;;14.90;99.90;;;;;;5041866;28;20197;-72
2022/05/07 01:41:55;;;;;;;860.53;798.20;;;15.00;99.90;;;;;;5037253;28;20197;-72
2022/05/07 01:44:21;;;;;;;865.10;803.28;;;15.00;99.90;;;;;;5036324;28;20655;-72
2022/05/07 01:49:30;;;;;;;816.85;759.33;;;14.90;99.90;;;;;;5038278;28;20220;-72
2022/05/07 01:51:56;;;;;;;841.75;782.72;;;14.90;99.90;;;;;;5055919;28;20628;-73
2022/05/07 01:54:21;;;;;;;813.30;756.58;;;14.90;99.90;;;;;;5055373;28;20277;-72
2022/05/07 01:56:50;;;;;;;774.60;721.72;;;14.80;99.90;;;;;;5054931;28;20655;-73
2022/05/07 01:59:15;;;;;;;766.35;714.30;;;14.90;99.90;;;;;;5054731;28;20197;-72
2022/05/07 02:01:41;;;;;;;774.45;721.25;;;14.80;99.90;;;;;;5028471;28;20198;-72
2022/05/07 02:04:06;;;;;;;783.95;729.17;;;14.90;99.90;;;;;;5036923;28;20194;-72
2022/05/07 02:06:32;;;;;;;785.08;730.80;;;14.90;99.90;;;;;;5036099;28;20293;-72
2022/05/07 02:08:58;;;;;;;756.63;705.67;;;14.80;99.90;;;;;;5036230;28;20278;-73
2022/05/07 02:11:23;;;;;;;748.78;697.47;;;14.90;99.90;;;;;;5051601;28;20187;-73
2022/05/07 02:13:49;;;;;;;783.47;729.28;;;14.90;99.90;;;;;;5036314;28;20266;-72
2022/05/07 02:16:14;;;;;;;793.25;737.95;;;14.80;99.90;;;;;;5082755;28;20198;-72
2022/05/07 02:18:44;;;;;;;820.72;763.33;;;14.80;99.90;;;;;;5036865;28;20241;-72
2022/05/07 02:21:09;;;;;;;818.50;760.90;;;14.80;99.90;;;;;;5050574;28;20194;-72
2022/05/07 02:23:35;;;;;;;822.70;765.55;;;14.80;99.90;;;;;;5035303;28;20201;-72
2022/05/07 02:26:01;;;;;;;815.97;759.15;;;14.80;99.90;;;;;;5048628;28;20213;-72
2022/05/07 02:28:26;;;;;;;820.55;763.53;;;14.80;99.90;;;;;;5042661;28;20189;-73
2022/05/07 02:30:52;;;;;;;823.22;766.80;;;15.00;99.90;;;;;;5045627;28;20560;-72
2022/05/07 02:33:21;;;;;;;765.05;712.88;;;15.00;99.90;;;;;;5052038;28;20209;-72
2022/05/07 02:35:46;;;;;;;702.22;655.88;;;15.00;99.90;;;;;;5034598;28;20211;-72
2022/05/07 02:38:12;;;;;;;647.47;604.55;;;15.10;99.90;;;;;;5034625;28;20237;-72
2022/05/07 02:43:22;;;;;;;538.70;503.15;;;14.90;99.90;;;;;;5035673;28;20198;-72
2022/05/07 02:45:48;;;;;;;608.92;568.75;;;14.90;99.90;;;;;;5035784;28;20552;-72
2022/05/07 02:48:13;;;;;;;592.63;553.00;;;14.80;99.90;;;;;;5040634;28;20259;-72
2022/05/07 02:50:39;;;;;;;622.83;581.30;;;14.80;99.90;;;;;;5060601;28;20195;-72
2022/05/07 02:53:05;;;;;;;593.10;553.95;;;14.80;99.90;;;;;;5035547;28;20183;-72
2022/05/07 02:55:30;;;;;;;611.20;570.25;;;14.90;99.90;;;;;;5034187;28;20182;-72
2022/05/07 02:57:56;;;;;;;595.22;555.13;;;14.80;99.90;;;;;;5050808;28;20190;-71
2022/05/07 03:00:21;;;;;;;623.88;582.97;;;14.90;99.90;;;;;;5040960;28;20202;-71
2022/05/07 03:02:47;;;;;;;642.40;598.80;;;14.90;99.90;;;;;;5041501;28;20208;-71
2022/05/07 03:05:13;;;;;;;631.85;590.60;;;14.90;99.90;;;;;;5042093;28;20553;-71
2022/05/07 03:07:38;;;;;;;638.97;596.10;;;14.90;99.90;;;;;;5050334;28;20580;-71
2022/05/07 03:10:04;;;;;;;676.15;631.05;;;14.80;99.90;;;;;;5036807;28;20318;-71
2022/05/07 03:12:30;;;;;;;679.83;634.70;;;14.80;99.90;;;;;;5040531;28;20269;-72
2022/05/07 03:14:56;;;;;;;674.50;629.47;;;14.90;99.90;;;;;;5034437;28;20297;-71
2022/05/07 03:17:23;;;;;;;667.90;622.53;;;14.60;99.90;;;;;;5034038;28;20205;-71
2022/05/07 03:19:48;;;;;;;712.30;665.20;;;14.60;99.90;;;;;;5032522;28;20182;-71
2022/05/07 03:22:14;;;;;;;744.20;694.63;;;14.60;99.90;;;;;;5035313;28;20674;-71
2022/05/07 03:24:41;;;;;;;735.50;687.35;;;14.50;99.90;;;;;;5042663;28;20195;-71
2022/05/07 03:27:07;;;;;;;745.38;696.22;;;14.50;99.90;;;;;;5050093;28;20214;-72
2022/05/07 03:29:32;;;;;;;781.42;728.40;;;14.50;99.90;;;;;;5034251;28;20661;-72
2022/05/07 03:31:58;;;;;;;807.10;753.40;;;14.60;99.90;;;;;;5017833;28;20187;-72
2022/05/07 03:34:24;;;;;;;800.03;746.55;;;14.70;99.90;;;;;;5040919;28;20661;-72
2022/05/07 03:36:50;;;;;;;789.28;735.88;;;14.70;99.90;;;;;;5045744;28;20209;-71
2022/05/07 03:39:16;;;;;;;818.95;763.55;;;14.70;99.90;;;;;;5017580;28;20195;-71
2022/05/07 03:41:41;;;;;;;882.53;821.60;;;14.70;99.90;;;;;;5034566;28;20237;-72
2022/05/07 03:44:07;;;;;;;903.58;840.55;;;14.70;99.90;;;;;;5033826;28;20186;-71
2022/05/07 03:46:33;;;;;;;944.38;876.55;;;14.70;99.90;;;;;;5044439;28;20618;-73
2022/05/07 03:48:59;;;;;;;974.05;902.22;;;14.80;99.90;;;;;;5034460;28;20191;-71
2022/05/07 03:51:25;;;;;;;998.53;924.90;;;14.70;99.90;;;;;;5036925;28;20189;-71
2022/05/07 03:53:50;;;;;;;1029.88;952.45;;;14.80;99.90;;;;;;5046860;28;20190;-71
2022/05/07 03:56:16;;;;;;;1028.15;951.42;;;14.80;99.90;;;;;;5043029;28;20295;-71
2022/05/07 03:58:42;;;;;;;1004.08;930.55;;;14.70;99.90;;;;;;5043840;28;20191;-71
2022/05/07 04:01:08;;;;;;;1005.40;929.85;;;14.70;99.90;;;;;;5029812;28;20569;-71
2022/05/07 04:03:34;;;;;;;1020.65;944.33;;;14.50;99.90;;;;;;5033325;28;20189;-71
2022/05/07 04:06:00;;;;;;;987.92;914.92;;;14.40;99.90;;;;;;5032543;28;20222;-72
2022/05/07 04:08:26;;;;;;;1018.38;942.70;;;14.30;99.90;;;;;;5038933;28;20194;-72
2022/05/07 04:10:51;;;;;;;1030.35;952.67;;;14.20;99.90;;;;;;5047677;28;20206;-71
2022/05/07 04:13:17;;;;;;;1028.25;951.58;;;14.20;99.90;;;;;;5065962;28;20244;-71
2022/05/07 04:15:44;;;;;;;1030.53;953.50;;;14.20;99.90;;;;;;5032818;28;20198;-71
2022/05/07 04:18:10;;;;;;;1017.63;941.65;;;14.30;99.90;;;;;;5033938;28;20183;-71
2022/05/07 04:20:37;;;;;;;1020.20;943.67;;;14.40;99.90;;;;;;5065990;28;20267;-71
2022/05/07 04:23:03;;;;;;;1032.97;954.80;;;14.30;99.90;;;;;;5033649;28;20189;-72
2022/05/07 04:25:32;;;;;;;1047.30;968.28;;;14.20;99.90;;;;;;5034014;28;20241;-72
2022/05/07 04:27:58;;;;;;;1022.80;945.53;;;14.30;99.90;;;;;;5043675;28;20818;-72
2022/05/07 04:30:24;;;;;;;1053.60;973.03;;;14.30;99.90;;;;;;5032406;28;20195;-72
2022/05/07 04:32:53;;;;;;;1061.72;980.67;;;14.40;99.90;;;;;;5054181;28;20239;-72
2022/05/07 04:35:18;;;;;;;1052.07;972.08;;;14.30;99.90;;;;;;5053002;28;20273;-72
2022/05/07 04:37:44;;;;;;;1048.63;968.40;;;14.20;99.90;;;;;;5061736;28;20702;-72
2022/05/07 04:40:10;;;;;;;1054.63;974.20;;;14.30;99.90;;;;;;5018760;28;20182;-72
2022/05/07 04:42:37;;;;;;;1036.38;957.83;;;14.30;99.90;;;;;;5033221;28;20713;-72
2022/05/07 04:45:04;;;;;;;1037.47;959.70;;;14.40;99.90;;;;;;5046558;28;20200;-72
2022/05/07 04:47:30;;;;;;;1028.60;950.95;;;14.30;99.90;;;;;;5040030;28;20206;-71
2022/05/07 04:49:56;;;;;;;959.60;889.42;;;14.30;99.90;;;;;;5046476;28;20282;-72
2022/05/07 04:52:22;;;;;;;983.05;910.50;;;14.30;99.90;;;;;;5035498;28;20218;-71
2022/05/07 04:54:50;;;;;;;970.28;898.95;;;14.50;99.90;;;;;;5043006;28;20679;-72
2022/05/07 04:57:16;;;;;;;962.45;892.78;;;14.40;99.90;;;;;;5031904;28;20236;-71
2022/05/07 04:59:45;;;;;;;937.65;870.22;;;14.40;99.90;;;;;;5032087;28;20182;-71
2022/05/07 05:02:10;;;;;;;928.08;861.58;;;14.50;99.90;;;;;;5029545;28;20608;-71
2022/05/07 05:04:36;;;;;;;903.15;839.00;;;14.40;99.90;;;;;;5021447;28;20217;-72
2022/05/07 05:07:02;;;;;;;896.47;833.00;;;14.40;99.90;;;;;;5031915;28;20570;-72
2022/05/07 05:09:27;;;;;;;890.50;827.33;;;14.50;99.90;;;;;;5033924;28;20213;-72
2022/05/07 05:11:53;;;;;;;875.42;813.13;;;14.40;99.90;;;;;;5031829;28;20194;-72
2022/05/07 05:17:03;;;;;;;766.55;713.38;;;14.50;99.90;;;;;;5033738;28;20248;-72
2022/05/07 05:19:28;;;;;;;817.42;760.63;;;14.60;99.90;;;;;;5033589;28;20190;-71
2022/05/07 05:21:54;;;;;;;849.95;790.22;;;14.60;99.90;;;;;;5016094;28;20197;-72
2022/05/07 05:24:20;;;;;;;819.80;762.88;;;14.50;99.90;;;;;;5015975;28;20197;-72
2022/05/07 05:26:45;;;;;;;769.65;717.35;;;14.50;99.90;;;;;;5032079;28;20221;-72
2022/05/07 05:29:11;;;;;;;740.75;690.72;;;14.60;99.90;;;;;;5031942;28;20655;-72
2022/05/07 05:31:40;;;;;;;682.35;635.90;;;14.70;99.90;;;;;;5031613;28;20197;-73
2022/05/07 05:34:06;;;;;;;664.75;618.20;;;14.70;99.90;;;;;;5033162;28;20179;-80
2022/05/07 05:36:34;;;;;;;685.63;638.55;;;14.70;99.90;;;;;;5050307;28;20212;-80
2022/05/07 05:39:06;;;;;;;625.55;582.33;;;14.70;99.90;;;;;;5055308;28;20186;-80
2022/05/07 05:41:31;;;;;;;554.63;516.20;;;14.70;99.90;;;;;;5042117;28;20183;-81
2022/05/07 05:43:57;;;;;;;567.55;528.00;;;14.70;99.90;;;;;;5031581;28;20252;-80
2022/05/07 05:46:23;;;;;;;556.75;517.50;;;14.90;99.90;;;;;;5034118;28;20211;-80
2022/05/07 05:48:48;;;;;;;579.13;538.03;;;14.80;99.90;;;;;;5034909;28;20640;-79
2022/05/07 05:51:14;;;;;;;619.72;575.58;;;15.00;99.90;;;;;;5048185;28;20647;-79
2022/05/07 05:53:39;;;;;;;631.72;586.90;;;14.90;99.90;;;;;;5031676;28;20640;-78
2022/05/07 05:56:05;;;;;;;639.83;595.45;;;15.10;99.90;;;;;;5064673;28;20202;-77
2022/05/07 05:58:34;;;;;;;643.08;598.67;;;15.00;99.90;;;;;;5048286;28;20185;-68
2022/05/07 06:01:02;;;;;;;642.70;597.47;;;15.10;99.90;;;;;;5032772;28;20182;-68
2022/05/07 06:03:28;;;;;;;638.78;593.78;;;15.20;99.90;;;;;;5031748;28;20218;-69
2022/05/07 06:05:54;;;;;;;599.80;558.33;;;15.00;99.90;;;;;;5022080;28;20554;-70
2022/05/07 06:08:20;;;;;;;564.28;525.60;;;15.10;99.90;;;;;;5044238;28;20186;-68
2022/05/07 06:10:47;;;;;;;547.20;508.65;;;15.20;99.90;;;;;;5046824;28;20187;-68
2022/05/07 06:13:12;;;;;;;544.45;505.10;;;15.20;99.90;;;;;;5048172;28;20186;-68
2022/05/07 06:15:38;;;;;;;478.83;442.77;;;15.40;99.90;;;;;;5032210;28;20194;-68
2022/05/07 06:18:07;;;;;;;489.27;452.92;;;15.50;99.90;;;;;;5041179;28;20221;-68
2022/05/07 06:20:33;;;;;;;514.05;474.77;;;15.80;99.90;;;;;;5078956;28;20190;-67
2022/05/07 06:22:59;;;;;;;509.00;470.70;;;15.70;99.90;;;;;;5035940;28;20309;-69
2022/05/07 06:28:10;;;;;;;559.10;514.15;;;15.80;99.90;;;;;;5034414;28;20225;-70
2022/05/07 06:30:35;;;;;;;524.55;483.60;;;15.90;99.90;;;;;;5050453;28;20198;-69
2022/05/07 06:33:01;;;;;;;531.60;491.52;;;15.90;99.90;;;;;;5035863;28;20632;-72
2022/05/07 06:35:27;;;;;;;542.65;502.27;;;15.90;99.90;;;;;;5037637;28;20220;-72
2022/05/07 06:37:53;;;;;;;550.05;509.42;;;15.90;99.90;;;;;;5037021;28;20281;-73
2022/05/07 06:40:19;;;;;;;595.72;552.88;;;15.80;99.90;;;;;;5038454;28;20201;-73
2022/05/07 06:42:48;;;;;;;511.85;471.85;;;16.00;99.90;;;;;;5035455;28;20198;-74
2022/05/07 06:45:14;;;;;;;594.03;547.60;;;15.80;99.90;;;;;;5035792;28;20562;-72
2022/05/07 06:47:39;;;;;;;540.45;498.08;;;16.00;99.90;;;;;;5034362;28;20202;-73
2022/05/07 06:50:05;;;;;;;526.78;485.27;;;16.00;99.90;;;;;;5018356;28;20663;-73
2022/05/07 06:52:31;;;;;;;513.70;472.42;;;16.00;99.90;;;;;;5034380;28;20534;-73
2022/05/07 06:54:57;;;;;;;524.03;482.20;;;16.10;99.90;;;;;;5035783;28;20195;-73
2022/05/07 06:57:26;;;;;;;522.40;478.95;;;16.20;99.90;;;;;;5034086;28;20703;-73
2022/05/07 06:59:52;;;;;;;553.83;509.20;;;16.40;99.90;;;;;;5034015;28;20190;-73
2022/05/07 07:02:22;;;;;;;692.17;635.42;;;16.40;99.90;;;;;;5049656;28;20273;-72
2022/05/07 07:04:47;;;;;;;846.85;777.60;;;16.70;99.90;;;;;;5035653;28;20222;-73
2022/05/07 07:07:13;;;;;;;835.58;764.28;;;16.60;99.90;;;;;;5034641;28;20336;-76
2022/05/07 07:09:39;;;;;;;983.40;900.63;;;16.70;99.90;;;;;;5033402;28;20185;-68
2022/05/07 07:12:06;;;;;;;1025.85;936.45;;;16.60;99.90;;;;;;5033979;28;20190;-70
2022/05/07 07:14:34;;;;;;;1109.68;994.72;;;16.70;99.90;;;;;;5046322;28;20183;-70
2022/05/07 07:17:00;;;;;;;1178.15;999.90;;;16.90;99.90;;;;;;5034013;28;20205;-70
2022/05/07 07:19:29;;;;;;;1219.65;999.90;;;17.30;99.90;;;;;;5035338;28;20183;-72
2022/05/07 07:21:58;;;;;;;1285.68;999.90;;;17.70;99.90;;;;;;5051530;28;20198;-72
2022/05/07 07:24:24;;;;;;;1439.50;999.90;;;18.10;99.90;;;;;;5017328;28;20549;-68
2022/05/07 07:26:50;;;;;;;1600.68;999.90;;;18.40;99.90;;;;;;5033121;28;20210;-74
2022/05/07 07:29:15;;;;;;;1703.63;999.90;;;18.80;99.90;;;;;;5035797;28;20195;-71
2022/05/07 07:31:41;;;;;;;1854.18;999.90;;;19.00;99.90;;;;;;5060308;28;20195;-72
2022/05/07 07:34:07;;;;;;;1872.82;999.90;;;18.90;99.90;;;;;;5023823;28;20191;-73
2022/05/07 07:36:32;;;;;;;1897.20;999.90;;;18.80;99.90;;;;;;5033965;28;20667;-71
2022/05/07 07:38:59;;;;;;;1960.93;999.90;;;18.90;99.90;;;;;;5034734;28;20187;-68
2022/05/07 07:41:25;;;;;;;1943.10;999.90;;;18.90;99.90;;;;;;5034715;28;20200;-70
2022/05/07 07:43:51;;;;;;;1999.90;999.90;;;19.10;99.90;;;;;;5033398;28;20585;-75
2022/05/07 07:49:01;;;;;;;1999.90;999.90;;;20.40;99.90;;;;;;5033449;28;20662;-72
2022/05/07 07:51:26;;;;;;;1975.03;999.90;;;21.20;99.90;;;;;;5047838;28;20182;-78
2022/05/07 07:53:52;;;;;;;1546.38;854.08;;;21.50;99.90;;;;;;5040264;28;20636;-74
2022/05/07 07:56:20;;;;;;;1250.53;685.33;;;21.70;99.90;;;;;;5033170;28;20194;-79
2022/05/07 07:58:46;;;;;;;1748.30;885.72;;;22.60;99.90;;;;;;5033883;28;20191;-75
2022/05/07 08:01:12;;;;;;;1999.90;999.90;;;24.00;99.90;;;;;;5032978;28;20264;-86
2022/05/07 08:03:37;;;;;;;1999.90;999.90;;;24.80;99.90;;;;;;5053209;28;20193;-75
2022/05/07 08:06:03;;;;;;;1999.90;999.90;;;25.60;99.90;;;;;;5051778;28;20189;-84
2022/05/07 08:13:59;;;;;;;1999.90;999.90;;;28.10;99.90;;;;;;5032831;28;20201;-82
2022/05/07 08:16:25;;;;;;;1999.90;999.90;;;27.90;99.90;;;;;;5033358;28;20192;-81
2022/05/07 08:18:51;;;;;;;1999.90;999.90;;;28.20;99.90;;;;;;5059549;28;20190;-80
2022/05/07 08:21:17;;;;;;;1999.90;999.90;;;29.30;99.90;;;;;;5032854;28;20193;-81
2022/05/07 08:23:42;;;;;;;1999.90;999.90;;;29.50;99.90;;;;;;5016898;28;20182;-81
2022/05/07 08:26:09;;;;;;;1999.90;999.90;;;28.70;99.90;;;;;;5016588;28;20554;-82
2022/05/07 08:28:37;;;;;;;1999.90;999.90;;;28.10;99.90;;;;;;5034168;28;20198;-82
2022/05/07 08:31:03;;;;;;;1999.90;999.90;;;27.60;99.90;;;;;;5032658;28;20220;-83
2022/05/07 08:33:30;;;;;;;1999.90;999.90;;;27.00;99.90;;;;;;5033910;28;20542;-81
2022/05/07 08:35:56;;;;;;;1999.90;999.90;;;27.00;99.90;;;;;;5033610;28;20197;-82
2022/05/07 08:38:21;;;;;;;1999.90;999.90;;;26.90;99.90;;;;;;5047417;28;20555;-81
2022/05/07 08:40:48;;;;;;;1999.90;999.90;;;25.70;99.90;;;;;;5065408;28;20205;-81
2022/05/07 08:43:15;;;;;;;1999.90;999.90;;;25.00;99.90;;;;;;5033621;28;20186;-81
2022/05/07 08:45:41;;;;;;;1999.90;999.90;;;24.40;99.90;;;;;;5049006;28;20182;-81
2022/05/07 08:48:08;;;;;;;1999.90;999.90;;;23.90;99.90;;;;;;5031989;28;20210;-82
2022/05/07 08:50:44;;;;;;;1999.90;999.90;;;23.20;99.90;;;;;;5080344;28;20633;-75
2022/05/07 08:53:09;;;;;;;1999.90;999.90;;;23.30;99.90;;;;;;5035656;28;20189;-73
2022/05/07 08:55:36;;;;;;;1999.90;999.90;;;22.70;99.90;;;;;;5048478;28;20193;-75
2022/05/07 08:58:02;;;;;;;1999.90;999.90;;;22.90;99.90;;;;;;5041396;28;20201;-69
2022/05/07 09:00:29;;;;;;;1999.90;999.90;;;23.90;99.90;;;;;;5031661;28;20563;-72
2022/05/07 09:03:15;;;;;;;1999.90;999.90;;;24.80;99.90;;;;;;5040580;28;20265;-72
2022/05/07 09:05:42;;;;;;;1999.90;999.90;;;25.20;99.90;;;;;;5076684;28;20184;-71
2022/05/07 09:08:10;;;;;;;1999.90;999.90;;;25.10;99.90;;;;;;5039007;28;20213;-71
2022/05/07 09:10:37;;;;;;;1999.90;999.90;;;24.70;99.90;;;;;;5044093;28;20202;-72
2022/05/07 09:13:16;;;;;;;1999.90;999.90;;;24.20;99.90;;;;;;5050695;28;20718;-73
2022/05/07 09:16:11;;;;;;;1999.90;999.90;;;23.90;99.90;;;;;;5037230;28;20206;-73
2022/05/07 09:18:37;;;;;;;1999.90;999.90;;;23.10;99.90;;;;;;5036798;28;20206;-73
2022/05/07 09:21:26;;;;;;;1999.90;999.90;;;22.90;99.90;;;;;;5036499;28;20254;-74
2022/05/07 09:23:58;;;;;;;1999.90;999.90;;;22.80;99.90;;;;;;5038251;28;20178;-72
2022/05/07 09:26:24;;;;;;;1999.90;999.90;;;23.00;99.90;;;;;;5043799;28;20238;-72
2022/05/07 09:28:50;;;;;;;1999.90;999.90;;;23.20;99.90;;;;;;5032750;28;20191;-73
2022/05/07 09:31:26;;;;;;;1999.90;999.90;;;23.10;99.90;;;;;;5032543;28;20186;-72
2022/05/07 09:35:47;;;;;;;1999.90;999.90;;;22.50;99.90;;;;;;5043052;28;20178;-73
2022/05/07 09:36:43;;;;;;;1999.90;999.90;;;22.60;99.90;;;;;;5031567;28;20731;-73
2022/05/07 09:39:14;;;;;;;1999.90;999.90;;;22.60;99.90;;;;;;5032786;28;20632;-73
2022/05/07 09:41:44;;;;;;;1999.90;999.90;;;22.90;99.90;;;;;;5031630;28;20197;-73
2022/05/07 09:44:11;;;;;;;1999.90;999.90;;;23.10;99.90;;;;;;5039840;28;20201;-73
2022/05/07 09:46:40;;;;;;;1999.90;999.90;;;23.40;99.90;;;;;;5040061;28;20210;-72
2022/05/07 09:49:08;;;;;;;1999.90;999.90;;;23.90;99.90;;;;;;5058907;28;20189;-72
2022/05/07 09:51:33;;;;;;;1999.90;999.90;;;24.20;99.90;;;;;;5035643;28;20182;-72
2022/05/07 09:59:29;;;;;;;1999.90;999.90;;;24.50;99.90;;;;;;5050699;28;20190;-72
2022/05/07 10:02:21;;;;;;;1999.90;999.90;;;24.10;99.90;;;;;;5056175;28;20185;-74
2022/05/07 10:05:24;;;;;;;1999.90;999.90;;;23.80;99.90;;;;;;5043808;28;20185;-72
2022/05/07 10:07:49;;;;;;;1999.90;999.90;;;23.40;99.90;;;;;;5038590;28;20315;-72
2022/05/07 10:10:25;;;;;;;1999.90;999.90;;;23.40;99.90;;;;;;5040030;28;20207;-73
2022/05/07 10:12:55;;;;;;;1999.90;999.90;;;23.30;99.90;;;;;;5035225;28;20573;-73
2022/05/07 10:15:23;;;;;;;1999.90;999.90;;;23.20;99.90;;;;;;5036907;28;20274;-73
2022/05/07 10:18:07;;;;;;;1999.90;999.90;;;23.00;99.90;;;;;;5036047;28;20194;-73
2022/05/07 10:20:44;;;;;;;1999.90;999.90;;;23.30;99.90;;;;;;5081858;28;20201;-72
2022/05/07 10:23:12;;;;;;;1999.90;999.90;;;23.60;99.90;;;;;;5036310;28;20607;-72
2022/05/07 10:25:40;;;;;;;1999.90;999.90;;;23.80;99.90;;;;;;5045441;28;20179;-72
2022/05/07 10:28:13;;;;;;;1999.90;999.90;;;23.60;99.90;;;;;;5046045;28;20217;-76
2022/05/07 10:30:46;;;;;;;1999.90;999.90;;;23.50;99.90;;;;;;5049793;28;20197;-72
2022/05/07 10:33:12;;;;;;;1999.90;999.90;;;23.60;99.90;;;;;;5047013;28;20265;-76
2022/05/07 10:35:38;;;;;;;1999.90;999.90;;;23.40;99.90;;;;;;5053509;28;20280;-72
2022/05/07 10:38:08;;;;;;;1999.90;999.90;;;23.10;99.90;;;;;;5034968;28;20607;-76
2022/05/07 10:40:33;;;;;;;1999.90;999.90;;;23.10;99.90;;;;;;5039045;28;20193;-73
2022/05/07 10:43:00;;;;;;;1999.90;999.90;;;23.00;99.90;;;;;;5054196;28;20174;-75
2022/05/07 10:45:27;;;;;;;1999.90;999.90;;;22.90;99.90;;;;;;5036515;28;20642;-75
2022/05/07 10:47:57;;;;;;;1999.90;999.90;;;22.70;99.90;;;;;;5055357;28;20205;-76
2022/05/07 10:50:23;;;;;;;1999.90;999.90;;;22.60;99.90;;;;;;5047997;28;20190;-75
2022/05/07 10:52:56;;;;;;;1999.90;999.90;;;22.50;99.90;;;;;;5047661;28;20224;-74
2022/05/07 10:55:27;;;;;;;1999.90;999.90;;;22.20;99.90;;;;;;5042774;28;20190;-76
2022/05/07 10:57:56;;;;;;;1999.90;999.90;;;22.10;99.90;;;;;;5033994;28;20183;-75
2022/05/07 11:00:23;;;;;;;1999.90;999.90;;;21.90;99.90;;;;;;5037170;28;20202;-77
2022/05/07 11:02:56;;;;;;;1999.90;999.90;;;21.90;99.90;;;;;;5043493;28;20186;-76
2022/05/07 11:05:32;;;;;;;1999.90;999.90;;;22.00;99.90;;;;;;5042361;28;20182;-75
2022/05/07 11:08:02;;;;;;;1999.90;999.90;;;22.20;99.90;;;;;;5035591;28;20606;-76
2022/05/07 11:10:29;;;;;;;1999.90;999.90;;;22.20;99.90;;;;;;5048365;28;20191;-76
2022/05/07 11:13:08;;;;;;;1999.90;999.90;;;22.00;99.90;;;;;;5035577;28;20186;-75
2022/05/07 11:15:34;;;;;;;1999.90;999.90;;;22.10;99.90;;;;;;5052964;28;20186;-75
2022/05/07 11:18:00;;;;;;;1999.90;999.90;;;22.50;99.90;;;;;;5036715;28;20337;-75
2022/05/07 11:20:32;;;;;;;1999.90;999.90;;;23.00;99.90;;;;;;5033592;28;20273;-75
2022/05/07 11:23:03;;;;;;;1999.90;999.90;;;23.30;99.90;;;;;;5034590;28;20190;-75
2022/05/07 11:25:29;;;;;;;1999.90;999.90;;;23.60;99.90;;;;;;5034446;28;20193;-76
2022/05/07 11:27:57;;;;;;;1999.90;999.90;;;24.10;99.90;;;;;;5034575;28;20214;-76
2022/05/07 11:30:23;;;;;;;1999.90;999.90;;;24.30;99.90;;;;;;5033934;28;20225;-76
2022/05/07 11:32:48;;;;;;;1999.90;999.90;;;24.30;99.90;;;;;;5034128;28;20179;-76
2022/05/07 11:35:14;;;;;;;1999.90;999.90;;;24.10;99.90;;;;;;5049913;28;20183;-75
2022/05/07 11:37:42;;;;;;;1999.90;999.90;;;24.10;99.90;;;;;;5049337;28;20218;-75
2022/05/07 11:40:09;;;;;;;1999.90;999.90;;;23.80;99.90;;;;;;5045834;28;20182;-75
2022/05/07 11:42:49;;;;;;;1999.90;999.90;;;23.70;99.90;;;;;;5040618;28;20652;-75
2022/05/07 11:45:31;;;;;;;1999.90;999.90;;;23.50;99.90;;;;;;5049626;28;20187;-76
2022/05/07 11:48:09;;;;;;;1999.90;999.90;;;23.30;99.90;;;;;;5035890;28;20202;-77
2022/05/07 11:50:52;;;;;;;1999.90;999.90;;;22.90;99.90;;;;;;5034963;28;20217;-76
2022/05/07 11:53:26;;;;;;;1999.90;999.90;;;23.00;99.90;;;;;;5034867;28;20260;-76
2022/05/07 11:55:51;;;;;;;1999.90;999.90;;;22.90;99.90;;;;;;5037758;28;20182;-76
2022/05/07 11:58:25;;;;;;;1999.90;999.90;;;23.20;99.90;;;;;;5062219;28;20190;-76
2022/05/07 12:00:53;;;;;;;1999.90;999.90;;;23.10;99.90;;;;;;5034471;28;20201;-78
2022/05/07 12:03:26;;;;;;;1999.90;999.90;;;23.10;99.90;;;;;;5034628;28;20197;-76
2022/05/07 12:05:53;;;;;;;1999.90;999.90;;;23.40;99.90;;;;;;5034173;28;20175;-77
2022/05/07 12:08:25;;;;;;;1999.90;999.90;;;23.70;99.90;;;;;;5033082;28;20207;-76
2022/05/07 12:10:53;;;;;;;1999.90;999.90;;;24.20;99.90;;;;;;5033761;28;20722;-76
2022/05/07 12:13:26;;;;;;;1999.90;999.90;;;24.10;99.90;;;;;;5065049;28;20628;-76
2022/05/07 12:18:40;;;;;;;1999.90;999.90;;;24.40;99.90;;;;;;5034071;28;20256;-77
2022/05/07 12:21:06;;;;;;;1999.90;999.90;;;24.10;99.90;;;;;;5033858;28;20178;-76
2022/05/07 12:31:45;;;;;;;1999.90;999.90;;;24.00;99.90;;;;;;5033036;28;20267;-77
2022/05/07 12:34:12;;;;;;;1999.90;999.90;;;24.10;99.90;;;;;;5033304;28;20627;-74
2022/05/07 12:36:38;;;;;;;1999.90;999.90;;;24.10;99.90;;;;;;5041927;28;20568;-75
2022/05/07 12:39:03;;;;;;;1999.90;999.90;;;24.20;99.90;;;;;;5033756;28;20182;-76
2022/05/07 12:41:30;;;;;;;1999.90;999.90;;;23.80;99.90;;;;;;5033600;28;20175;-76
2022/05/07 12:43:59;;;;;;;1999.90;999.90;;;23.30;99.90;;;;;;5040811;28;20662;-76
2022/05/07 12:46:24;;;;;;;1999.90;999.90;;;23.10;99.90;;;;;;5033808;28;20214;-75